Erria Swan — 9HHJ9 — position and weather

sailwx.info

Track history (hours):
 
Tides and Currents Weather Stations Pressure Air Temp Water Temp Dewpoint Dewpoint Depression Visibility Wind Speed Wind Dir Waves Ship Positions

Erria Swan

Last reported at 2014-Dec-18 19:34 UTC. Time now 2014-Dec-18 20:14 UTC.
Position N 51°28' E 001°26'.

Length 130 m; draft 5.8 m.

Type: Ship. MMSI: 256986000.

Date/timePositionNaut miles runAvg speedWind from/ knotsBaromVisibWave heightAir tempDewpointWater temp
2014-Dec-18 19:34N 51°28' E 001°26'1110.9
2014-Dec-18 18:33N 51°29' E 001°08'1211.6
2014-Dec-18 17:33N 51°29' E 000°50'1212.1
2014-Dec-18 16:33N 51°30' E 000°30'8 8.4
2014-Dec-18 15:34N 51°28' E 000°17'6 6.3
2014-Dec-18 14:32N 51°31' E 000°08'0 0.0
2014-Dec-18 13:32N 51°31' E 000°08'0 0.0
2014-Dec-18 12:32N 51°31' E 000°08'0 0.0
2014-Dec-18 11:32N 51°31' E 000°08'0 0.0
2014-Dec-18 10:26N 51°31' E 000°08'0 0.0
2014-Dec-18 09:32N 51°31' E 000°08'0 0.0
2014-Dec-18 08:32N 51°31' E 000°08'0 0.0
2014-Dec-18 07:32N 51°31' E 000°08'0 0.0
2014-Dec-18 06:32N 51°31' E 000°08'0 0.0
2014-Dec-18 05:32N 51°31' E 000°08'0 0.0
2014-Dec-18 04:32N 51°31' E 000°08'0 0.0
2014-Dec-18 03:32N 51°31' E 000°08'0 0.0
2014-Dec-18 02:32N 51°31' E 000°08'0 0.0
2014-Dec-18 01:32N 51°31' E 000°08'0 0.0
2014-Dec-18 00:32N 51°31' E 000°08'0 0.0
2014-Dec-17 23:32N 51°31' E 000°08'0 0.0
2014-Dec-17 22:32N 51°31' E 000°08'0 0.0
2014-Dec-17 21:32N 51°31' E 000°08'0 0.0
2014-Dec-17 20:32N 51°31' E 000°08'0 0.0
2014-Dec-17 19:32N 51°31' E 000°08'0 0.0
2014-Dec-17 18:32N 51°31' E 000°08'0 0.0
2014-Dec-17 17:32N 51°31' E 000°08'0 0.0
2014-Dec-17 16:32N 51°31' E 000°08'0 0.0
2014-Dec-17 15:32N 51°31' E 000°08'0 0.0
2014-Dec-17 14:32N 51°31' E 000°08'0 0.0
2014-Dec-17 13:33N 51°31' E 000°08'6 5.9
2014-Dec-17 12:33N 51°28' E 000°16'7 6.7
2014-Dec-17 11:34N 51°28' E 000°27'9 9.1
2014-Dec-17 10:34N 51°30' E 000°41'1110.6
2014-Dec-17 09:34N 51°29' E 000°58'1111.3
2014-Dec-17 08:34N 51°29' E 001°16'9 9.0
2014-Dec-17 07:33N 51°25' E 001°30'10 9.7
2014-Dec-17 06:34N 51°30' E 001°43'10 9.6
2014-Dec-17 05:34N 51°27' E 001°58'9 8.9
2014-Dec-17 04:33N 51°22' E 002°10'9 9.0
2014-Dec-17 03:31N 51°22' E 002°25'11 9.9
2014-Dec-17 02:26N 51°22' E 002°42'1011.6
2014-Dec-17 01:33N 51°23' E 002°59'1312.9
2014-Dec-17 00:33N 51°25' E 003°19'1111.5
2014-Dec-16 23:33N 51°26' E 003°37'1110.7
2014-Dec-16 22:33N 51°21' E 003°52'7 7.4
2014-Dec-16 21:33N 51°22' E 004°04'8 8.2
2014-Dec-16 20:34N 51°21' E 004°17'1 0.5
2014-Dec-16 19:34N 51°21' E 004°18'2 1.9
2014-Dec-16 18:32N 51°19' E 004°19'0 0.0
2014-Dec-16 17:23N 51°19' E 004°19'0 0.0
2014-Dec-16 16:21N 51°19' E 004°19'0 0.0
2014-Dec-16 15:33N 51°19' E 004°19'0 0.0
2014-Dec-16 14:33N 51°19' E 004°19'0 0.0
2014-Dec-16 13:33N 51°19' E 004°19'0 0.0
2014-Dec-16 12:33N 51°19' E 004°19'0 0.0
2014-Dec-16 11:33N 51°19' E 004°19'0 0.0
2014-Dec-16 10:33N 51°19' E 004°19'0 0.0
2014-Dec-16 09:33N 51°19' E 004°19'0 0.0
2014-Dec-16 08:33N 51°19' E 004°19'0 0.0
2014-Dec-16 07:33N 51°19' E 004°19'0 0.0
2014-Dec-16 06:33N 51°19' E 004°19'0 0.2
2014-Dec-16 05:27N 51°19' E 004°19'2 2.3
2014-Dec-16 04:33N 51°21' E 004°17'0 0.0
2014-Dec-16 03:33N 51°21' E 004°17'5 4.9
2014-Dec-16 02:33N 51°24' E 004°11'8 7.6
2014-Dec-16 01:33N 51°26' E 003°60'9 8.9
2014-Dec-16 00:33N 51°20' E 003°49'2 2.1
2014-Dec-15 23:34N 51°18' E 003°50'2 2.0
2014-Dec-15 22:30N 51°16' E 003°51'0 0.0
2014-Dec-15 21:18N 51°16' E 003°51'0 0.0
2014-Dec-15 18:24N 51°16' E 003°51'0 0.0
2014-Dec-15 17:24N 51°16' E 003°51'0 0.0
2014-Dec-15 16:21N 51°16' E 003°51'0 0.0
2014-Dec-15 15:21N 51°16' E 003°51'0 0.0
2014-Dec-15 08:33N 51°16' E 003°51'0 0.0
2014-Dec-15 07:09N 51°16' E 003°51'0 0.0
2014-Dec-15 06:30N 51°16' E 003°51'0 0.0
2014-Dec-15 05:30N 51°16' E 003°51'0 0.0
2014-Dec-15 04:27N 51°16' E 003°51'0 0.0
2014-Dec-15 03:27N 51°16' E 003°51'0 0.0
2014-Dec-15 02:27N 51°16' E 003°51'0 0.0
2014-Dec-15 01:27N 51°16' E 003°51'0 0.0
2014-Dec-15 00:09N 51°16' E 003°51'0 0.0
2014-Dec-14 23:33N 51°16' E 003°51'0 0.0
2014-Dec-14 22:15N 51°16' E 003°51'0 0.0
2014-Dec-14 21:30N 51°16' E 003°51'0 0.0
2014-Dec-14 19:24N 51°16' E 003°51'0 0.0
2014-Dec-14 18:30N 51°16' E 003°51'0 0.0
2014-Dec-14 17:30N 51°16' E 003°51'0 0.0
2014-Dec-14 16:27N 51°16' E 003°51'0 0.0
2014-Dec-14 15:27N 51°16' E 003°51'0 0.0
2014-Dec-14 14:24N 51°16' E 003°51'0 0.1
2014-Dec-14 12:34N 51°17' E 003°51'3 3.4
2014-Dec-14 11:33N 51°20' E 003°49'3 3.4
2014-Dec-14 10:34N 51°22' E 003°45'8 8.0
2014-Dec-14 09:34N 51°26' E 003°34'10 9.9
2014-Dec-14 08:33N 51°34' E 003°24'1110.4
2014-Dec-14 07:32N 51°42' E 003°14'6 5.8
2014-Dec-14 06:33N 51°46' E 003°06'6 6.5
2014-Dec-14 05:33N 51°47' E 002°56'7 7.4
2014-Dec-14 04:33N 51°51' E 002°47'8 8.4
2014-Dec-14 03:33N 51°58' E 002°37'6711.1
2014-Dec-13 21:31N 53°04' E 002°25'1111.3
2014-Dec-13 20:33N 53°12' E 002°13'1610.9
2014-Dec-13 19:05N 53°24' E 001°54'3710.4
2014-Dec-13 15:32N 53°36' E 000°55'1111.6
2014-Dec-13 14:34N 53°34' E 000°37'1211.7
2014-Dec-13 13:33N 53°32' E 000°17'1313.5
2014-Dec-13 12:33N 53°36' W 000°05'4 3.7
2014-Dec-13 11:26N 53°38' W 000°11'0 0.0
2014-Dec-13 10:32N 53°38' W 000°11'0 0.0
2014-Dec-13 09:29N 53°38' W 000°11'0 0.0
2014-Dec-13 08:32N 53°38' W 000°11'0 0.0
2014-Dec-13 07:32N 53°38' W 000°11'0 0.0
2014-Dec-13 06:32N 53°38' W 000°11'0 0.0
2014-Dec-13 05:32N 53°38' W 000°11'0 0.0
2014-Dec-13 04:32N 53°38' W 000°11'0 0.0
2014-Dec-13 03:32N 53°38' W 000°11'0 0.0
2014-Dec-13 02:32N 53°38' W 000°11'0 0.0
2014-Dec-13 01:32N 53°38' W 000°11'0 0.0
2014-Dec-13 00:20N 53°38' W 000°11'0 0.0
2014-Dec-12 23:32N 53°38' W 000°11'0 0.0
2014-Dec-12 22:17N 53°38' W 000°11'0 0.0
2014-Dec-12 21:23N 53°38' W 000°11'0 0.0
2014-Dec-12 20:29N 53°38' W 000°11'0 0.0
2014-Dec-12 19:26N 53°38' W 000°11'0 0.1
2014-Dec-12 18:33N 53°38' W 000°11'1 1.1
2014-Dec-12 17:34N 53°38' W 000°10'1010.3
2014-Dec-12 16:33N 53°34' E 000°06'7 6.8
2014-Dec-12 15:33N 53°35' E 000°18'7 7.4
2014-Dec-12 14:34N 53°42' E 000°23'1010.3
2014-Dec-12 13:34N 53°52' E 000°22'1111.1
2014-Dec-12 12:34N 54°03' E 000°19'1110.9
2014-Dec-12 11:33N 54°14' E 000°16'1111.0
2014-Dec-12 10:34N 54°23' E 000°06'1211.7
2014-Dec-12 09:34N 54°32' W 000°06'1212.2
2014-Dec-12 08:34N 54°43' W 000°17'1312.2
2014-Dec-12 07:31N 54°53' W 000°29'1212.1
2014-Dec-12 06:33N 55°03' W 000°40'1212.1
2014-Dec-12 05:33N 55°13' W 000°52'3811.6
2014-Dec-12 02:14N 55°45' W 001°29'811.1
2014-Dec-12 01:29N 55°52' W 001°39'1010.8
2014-Dec-12 00:34N 55°59' W 001°51'1110.8
2014-Dec-11 23:34N 56°07' W 002°04'1111.0
2014-Dec-11 22:34N 56°15' W 002°17'1111.2
2014-Dec-11 21:33N 56°24' W 002°30'1110.5
2014-Dec-11 20:33N 56°27' W 002°48'  
2014-Dec-09 12:33N 56°27' W 002°47'6 6.5
2014-Dec-09 11:33N 56°27' W 002°35'3 3.3
2014-Dec-09 10:33N 56°26' W 002°30'3 3.2
2014-Dec-09 09:33N 56°23' W 002°26'3 3.2
2014-Dec-09 08:33N 56°21' W 002°23'5 4.7
2014-Dec-09 07:33N 56°17' W 002°18'10 9.8
2014-Dec-09 06:33N 56°09' W 002°07'9 9.3
2014-Dec-09 05:33N 56°02' W 001°56'9 8.9
2014-Dec-09 04:33N 55°55' W 001°45'10 8.5
2014-Dec-09 03:26N 55°49' W 001°33'11 8.6
2014-Dec-09 02:12N 55°40' W 001°22'25 9.1
2014-Dec-08 23:29N 55°19' W 001°01'9 9.1
2014-Dec-08 22:32N 55°11' W 000°53'9 8.8
2014-Dec-08 21:33N 55°04' W 000°46'9 8.9
2014-Dec-08 20:33N 54°56' W 000°38'  
Track history (hours):
 
Tides and Currents Weather Stations Pressure Air Temp Water Temp Dewpoint Dewpoint Depression Visibility Wind Speed Wind Dir Waves Ship Positions

Erria Swan

Last reported at 2014-Dec-18 19:34 UTC. Time now 2014-Dec-18 20:14 UTC.
Position N 51°28' E 001°26'.

Length 130 m; draft 5.8 m.

Type: Ship. MMSI: 256986000.

Date/timePositionNaut miles runAvg speedWind from/ knotsBaromVisibWave heightAir tempDewpointWater temp
2014-Dec-18 19:34N 51°28' E 001°26'1110.9
2014-Dec-18 18:33N 51°29' E 001°08'1211.6
2014-Dec-18 17:33N 51°29' E 000°50'1212.1
2014-Dec-18 16:33N 51°30' E 000°30'8 8.4
2014-Dec-18 15:34N 51°28' E 000°17'6 6.3
2014-Dec-18 14:32N 51°31' E 000°08'0 0.0
2014-Dec-18 13:32N 51°31' E 000°08'0 0.0
2014-Dec-18 12:32N 51°31' E 000°08'0 0.0
2014-Dec-18 11:32N 51°31' E 000°08'0 0.0
2014-Dec-18 10:26N 51°31' E 000°08'0 0.0
2014-Dec-18 09:32N 51°31' E 000°08'0 0.0
2014-Dec-18 08:32N 51°31' E 000°08'0 0.0
2014-Dec-18 07:32N 51°31' E 000°08'0 0.0
2014-Dec-18 06:32N 51°31' E 000°08'0 0.0
2014-Dec-18 05:32N 51°31' E 000°08'0 0.0
2014-Dec-18 04:32N 51°31' E 000°08'0 0.0
2014-Dec-18 03:32N 51°31' E 000°08'0 0.0
2014-Dec-18 02:32N 51°31' E 000°08'0 0.0
2014-Dec-18 01:32N 51°31' E 000°08'0 0.0
2014-Dec-18 00:32N 51°31' E 000°08'0 0.0
2014-Dec-17 23:32N 51°31' E 000°08'0 0.0
2014-Dec-17 22:32N 51°31' E 000°08'0 0.0
2014-Dec-17 21:32N 51°31' E 000°08'0 0.0
2014-Dec-17 20:32N 51°31' E 000°08'0 0.0
2014-Dec-17 19:32N 51°31' E 000°08'0 0.0
2014-Dec-17 18:32N 51°31' E 000°08'0 0.0
2014-Dec-17 17:32N 51°31' E 000°08'0 0.0
2014-Dec-17 16:32N 51°31' E 000°08'0 0.0
2014-Dec-17 15:32N 51°31' E 000°08'0 0.0
2014-Dec-17 14:32N 51°31' E 000°08'0 0.0
2014-Dec-17 13:33N 51°31' E 000°08'6 5.9
2014-Dec-17 12:33N 51°28' E 000°16'7 6.7
2014-Dec-17 11:34N 51°28' E 000°27'9 9.1
2014-Dec-17 10:34N 51°30' E 000°41'1110.6
2014-Dec-17 09:34N 51°29' E 000°58'1111.3
2014-Dec-17 08:34N 51°29' E 001°16'9 9.0
2014-Dec-17 07:33N 51°25' E 001°30'10 9.7
2014-Dec-17 06:34N 51°30' E 001°43'10 9.6
2014-Dec-17 05:34N 51°27' E 001°58'9 8.9
2014-Dec-17 04:33N 51°22' E 002°10'9 9.0
2014-Dec-17 03:31N 51°22' E 002°25'11 9.9
2014-Dec-17 02:26N 51°22' E 002°42'1011.6
2014-Dec-17 01:33N 51°23' E 002°59'1312.9
2014-Dec-17 00:33N 51°25' E 003°19'1111.5
2014-Dec-16 23:33N 51°26' E 003°37'1110.7
2014-Dec-16 22:33N 51°21' E 003°52'7 7.4
2014-Dec-16 21:33N 51°22' E 004°04'8 8.2
2014-Dec-16 20:34N 51°21' E 004°17'1 0.5
2014-Dec-16 19:34N 51°21' E 004°18'2 1.9
2014-Dec-16 18:32N 51°19' E 004°19'0 0.0
2014-Dec-16 17:23N 51°19' E 004°19'0 0.0
2014-Dec-16 16:21N 51°19' E 004°19'0 0.0
2014-Dec-16 15:33N 51°19' E 004°19'0 0.0
2014-Dec-16 14:33N 51°19' E 004°19'0 0.0
2014-Dec-16 13:33N 51°19' E 004°19'0 0.0
2014-Dec-16 12:33N 51°19' E 004°19'0 0.0
2014-Dec-16 11:33N 51°19' E 004°19'0 0.0
2014-Dec-16 10:33N 51°19' E 004°19'0 0.0
2014-Dec-16 09:33N 51°19' E 004°19'0 0.0
2014-Dec-16 08:33N 51°19' E 004°19'0 0.0
2014-Dec-16 07:33N 51°19' E 004°19'0 0.0
2014-Dec-16 06:33N 51°19' E 004°19'0 0.2
2014-Dec-16 05:27N 51°19' E 004°19'2 2.3
2014-Dec-16 04:33N 51°21' E 004°17'0 0.0
2014-Dec-16 03:33N 51°21' E 004°17'5 4.9
2014-Dec-16 02:33N 51°24' E 004°11'8 7.6
2014-Dec-16 01:33N 51°26' E 003°60'9 8.9
2014-Dec-16 00:33N 51°20' E 003°49'2 2.1
2014-Dec-15 23:34N 51°18' E 003°50'2 2.0
2014-Dec-15 22:30N 51°16' E 003°51'0 0.0
2014-Dec-15 21:18N 51°16' E 003°51'0 0.0
2014-Dec-15 18:24N 51°16' E 003°51'0 0.0
2014-Dec-15 17:24N 51°16' E 003°51'0 0.0
2014-Dec-15 16:21N 51°16' E 003°51'0 0.0
2014-Dec-15 15:21N 51°16' E 003°51'0 0.0
2014-Dec-15 08:33N 51°16' E 003°51'0 0.0
2014-Dec-15 07:09N 51°16' E 003°51'0 0.0
2014-Dec-15 06:30N 51°16' E 003°51'0 0.0
2014-Dec-15 05:30N 51°16' E 003°51'0 0.0
2014-Dec-15 04:27N 51°16' E 003°51'0 0.0
2014-Dec-15 03:27N 51°16' E 003°51'0 0.0
2014-Dec-15 02:27N 51°16' E 003°51'0 0.0
2014-Dec-15 01:27N 51°16' E 003°51'0 0.0
2014-Dec-15 00:09N 51°16' E 003°51'0 0.0
2014-Dec-14 23:33N 51°16' E 003°51'0 0.0
2014-Dec-14 22:15N 51°16' E 003°51'0 0.0
2014-Dec-14 21:30N 51°16' E 003°51'0 0.0
2014-Dec-14 19:24N 51°16' E 003°51'0 0.0
2014-Dec-14 18:30N 51°16' E 003°51'0 0.0
2014-Dec-14 17:30N 51°16' E 003°51'0 0.0
2014-Dec-14 16:27N 51°16' E 003°51'0 0.0
2014-Dec-14 15:27N 51°16' E 003°51'0 0.0
2014-Dec-14 14:24N 51°16' E 003°51'0 0.1
2014-Dec-14 12:34N 51°17' E 003°51'3 3.4
2014-Dec-14 11:33N 51°20' E 003°49'3 3.4
2014-Dec-14 10:34N 51°22' E 003°45'8 8.0
2014-Dec-14 09:34N 51°26' E 003°34'10 9.9
2014-Dec-14 08:33N 51°34' E 003°24'1110.4
2014-Dec-14 07:32N 51°42' E 003°14'6 5.8
2014-Dec-14 06:33N 51°46' E 003°06'6 6.5
2014-Dec-14 05:33N 51°47' E 002°56'7 7.4
2014-Dec-14 04:33N 51°51' E 002°47'8 8.4
2014-Dec-14 03:33N 51°58' E 002°37'6711.1
2014-Dec-13 21:31N 53°04' E 002°25'1111.3
2014-Dec-13 20:33N 53°12' E 002°13'1610.9
2014-Dec-13 19:05N 53°24' E 001°54'3710.4
2014-Dec-13 15:32N 53°36' E 000°55'1111.6
2014-Dec-13 14:34N 53°34' E 000°37'1211.7
2014-Dec-13 13:33N 53°32' E 000°17'1313.5
2014-Dec-13 12:33N 53°36' W 000°05'4 3.7
2014-Dec-13 11:26N 53°38' W 000°11'0 0.0
2014-Dec-13 10:32N 53°38' W 000°11'0 0.0
2014-Dec-13 09:29N 53°38' W 000°11'0 0.0
2014-Dec-13 08:32N 53°38' W 000°11'0 0.0
2014-Dec-13 07:32N 53°38' W 000°11'0 0.0
2014-Dec-13 06:32N 53°38' W 000°11'0 0.0
2014-Dec-13 05:32N 53°38' W 000°11'0 0.0
2014-Dec-13 04:32N 53°38' W 000°11'0 0.0
2014-Dec-13 03:32N 53°38' W 000°11'0 0.0
2014-Dec-13 02:32N 53°38' W 000°11'0 0.0
2014-Dec-13 01:32N 53°38' W 000°11'0 0.0
2014-Dec-13 00:20N 53°38' W 000°11'0 0.0
2014-Dec-12 23:32N 53°38' W 000°11'0 0.0
2014-Dec-12 22:17N 53°38' W 000°11'0 0.0
2014-Dec-12 21:23N 53°38' W 000°11'0 0.0
2014-Dec-12 20:29N 53°38' W 000°11'0 0.0
2014-Dec-12 19:26N 53°38' W 000°11'0 0.1
2014-Dec-12 18:33N 53°38' W 000°11'1 1.1
2014-Dec-12 17:34N 53°38' W 000°10'1010.3
2014-Dec-12 16:33N 53°34' E 000°06'7 6.8
2014-Dec-12 15:33N 53°35' E 000°18'7 7.4
2014-Dec-12 14:34N 53°42' E 000°23'1010.3
2014-Dec-12 13:34N 53°52' E 000°22'1111.1
2014-Dec-12 12:34N 54°03' E 000°19'1110.9
2014-Dec-12 11:33N 54°14' E 000°16'1111.0
2014-Dec-12 10:34N 54°23' E 000°06'1211.7
2014-Dec-12 09:34N 54°32' W 000°06'1212.2
2014-Dec-12 08:34N 54°43' W 000°17'1312.2
2014-Dec-12 07:31N 54°53' W 000°29'1212.1
2014-Dec-12 06:33N 55°03' W 000°40'1212.1
2014-Dec-12 05:33N 55°13' W 000°52'3811.6
2014-Dec-12 02:14N 55°45' W 001°29'811.1
2014-Dec-12 01:29N 55°52' W 001°39'1010.8
2014-Dec-12 00:34N 55°59' W 001°51'1110.8
2014-Dec-11 23:34N 56°07' W 002°04'1111.0
2014-Dec-11 22:34N 56°15' W 002°17'1111.2
2014-Dec-11 21:33N 56°24' W 002°30'1110.5
2014-Dec-11 20:33N 56°27' W 002°48'  
2014-Dec-09 12:33N 56°27' W 002°47'6 6.5
2014-Dec-09 11:33N 56°27' W 002°35'3 3.3
2014-Dec-09 10:33N 56°26' W 002°30'3 3.2
2014-Dec-09 09:33N 56°23' W 002°26'3 3.2
2014-Dec-09 08:33N 56°21' W 002°23'5 4.7
2014-Dec-09 07:33N 56°17' W 002°18'10 9.8
2014-Dec-09 06:33N 56°09' W 002°07'9 9.3
2014-Dec-09 05:33N 56°02' W 001°56'9 8.9
2014-Dec-09 04:33N 55°55' W 001°45'10 8.5
2014-Dec-09 03:26N 55°49' W 001°33'11 8.6
2014-Dec-09 02:12N 55°40' W 001°22'25 9.1
2014-Dec-08 23:29N 55°19' W 001°01'9 9.1
2014-Dec-08 22:32N 55°11' W 000°53'9 8.8
2014-Dec-08 21:33N 55°04' W 000°46'9 8.9
2014-Dec-08 20:33N 54°56' W 000°38'  

Dump ship's entire track history